sensor_id;sensor_type;location;lat;lon;timestamp;pressure;altitude;pressure_sealevel;temperature;humidity
18918;BME280;9591;52.742;13.650;2022-12-31T00:01:55;100172.59;;;8.21;100.00
18918;BME280;9591;52.742;13.650;2022-12-31T00:04:43;100172.72;;;8.17;100.00
18918;BME280;9591;52.742;13.650;2022-12-31T00:07:33;100177.72;;;8.26;100.00
18918;BME280;9591;52.742;13.650;2022-12-31T00:10:18;100179.34;;;8.30;100.00
18918;BME280;9591;52.742;13.650;2022-12-31T00:13:06;100191.72;;;8.28;100.00
18918;BME280;9591;52.742;13.650;2022-12-31T00:15:53;100192.34;;;8.38;100.00
18918;BME280;9591;52.742;13.650;2022-12-31T00:18:42;100199.28;;;8.40;100.00
18918;BME280;9591;52.742;13.650;2022-12-31T00:21:31;100201.72;;;8.46;100.00
18918;BME280;9591;52.742;13.650;2022-12-31T00:24:19;100203.31;;;8.52;100.00
18918;BME280;9591;52.742;13.650;2022-12-31T00:27:06;100198.09;;;8.50;100.00
18918;BME280;9591;52.742;13.650;2022-12-31T00:29:52;100214.63;;;8.56;100.00
18918;BME280;9591;52.742;13.650;2022-12-31T00:32:46;100210.78;;;8.66;100.00
18918;BME280;9591;52.742;13.650;2022-12-31T00:35:33;100213.34;;;8.67;100.00
18918;BME280;9591;52.742;13.650;2022-12-31T00:38:22;100201.63;;;8.76;100.00
18918;BME280;9591;52.742;13.650;2022-12-31T00:41:09;100212.09;;;8.79;100.00
18918;BME280;9591;52.742;13.650;2022-12-31T00:43:56;100214.78;;;8.77;100.00
18918;BME280;9591;52.742;13.650;2022-12-31T00:46:43;100218.03;;;8.85;100.00
18918;BME280;9591;52.742;13.650;2022-12-31T00:49:28;100202.38;;;8.79;100.00
18918;BME280;9591;52.742;13.650;2022-12-31T00:52:15;100198.53;;;8.90;100.00
18918;BME280;9591;52.742;13.650;2022-12-31T00:55:05;100207.41;;;8.87;100.00
18918;BME280;9591;52.742;13.650;2022-12-31T00:57:52;100206.50;;;8.88;100.00
18918;BME280;9591;52.742;13.650;2022-12-31T01:00:39;100209.97;;;8.90;100.00
18918;BME280;9591;52.742;13.650;2022-12-31T01:03:26;100218.78;;;8.89;100.00
18918;BME280;9591;52.742;13.650;2022-12-31T01:06:13;100241.44;;;8.96;100.00
18918;BME280;9591;52.742;13.650;2022-12-31T01:09:00;100252.22;;;8.90;100.00
18918;BME280;9591;52.742;13.650;2022-12-31T01:11:50;100252.31;;;8.87;100.00
18918;BME280;9591;52.742;13.650;2022-12-31T01:14:37;100252.81;;;8.72;100.00
18918;BME280;9591;52.742;13.650;2022-12-31T01:17:26;100264.81;;;8.82;100.00
18918;BME280;9591;52.742;13.650;2022-12-31T01:20:13;100259.00;;;8.71;100.00
18918;BME280;9591;52.742;13.650;2022-12-31T01:23:00;100269.94;;;8.86;100.00
18918;BME280;9591;52.742;13.650;2022-12-31T01:25:47;100259.41;;;8.85;100.00
18918;BME280;9591;52.742;13.650;2022-12-31T01:28:35;100272.56;;;8.86;100.00
18918;BME280;9591;52.742;13.650;2022-12-31T01:31:23;100263.88;;;8.83;100.00
18918;BME280;9591;52.742;13.650;2022-12-31T01:34:10;100284.19;;;8.81;100.00
18918;BME280;9591;52.742;13.650;2022-12-31T01:36:56;100277.94;;;8.83;100.00
18918;BME280;9591;52.742;13.650;2022-12-31T01:39:43;100286.69;;;8.85;100.00
18918;BME280;9591;52.742;13.650;2022-12-31T01:42:30;100282.28;;;8.86;100.00
18918;BME280;9591;52.742;13.650;2022-12-31T01:45:18;100280.78;;;8.77;100.00
18918;BME280;9591;52.742;13.650;2022-12-31T01:48:07;100280.75;;;8.79;100.00
18918;BME280;9591;52.742;13.650;2022-12-31T01:50:58;100280.34;;;8.91;100.00
18918;BME280;9591;52.742;13.650;2022-12-31T01:53:45;100280.34;;;8.91;100.00
18918;BME280;9591;52.742;13.650;2022-12-31T01:56:33;100271.38;;;8.97;100.00
18918;BME280;9591;52.742;13.650;2022-12-31T01:59:22;100277.59;;;8.94;100.00
18918;BME280;9591;52.742;13.650;2022-12-31T02:02:13;100277.81;;;8.88;100.00
18918;BME280;9591;52.742;13.650;2022-12-31T02:05:08;100291.00;;;8.88;100.00
18918;BME280;9591;52.742;13.650;2022-12-31T02:07:57;100294.50;;;8.88;100.00
18918;BME280;9591;52.742;13.650;2022-12-31T02:10:44;100296.84;;;8.98;100.00
18918;BME280;9591;52.742;13.650;2022-12-31T02:13:31;100293.31;;;8.99;100.00
18918;BME280;9591;52.742;13.650;2022-12-31T02:16:21;100288.69;;;9.05;100.00
18918;BME280;9591;52.742;13.650;2022-12-31T02:19:43;100294.38;;;8.93;100.00
18918;BME280;9591;52.742;13.650;2022-12-31T02:22:50;100294.28;;;8.96;100.00
18918;BME280;9591;52.742;13.650;2022-12-31T02:29:25;100296.56;;;9.07;100.00
18918;BME280;9591;52.742;13.650;2022-12-31T02:32:21;100287.81;;;9.05;100.00
18918;BME280;9591;52.742;13.650;2022-12-31T02:35:12;100233.97;;;8.82;100.00
18918;BME280;9591;52.742;13.650;2022-12-31T02:38:04;100291.75;;;9.19;100.00
18918;BME280;9591;52.742;13.650;2022-12-31T02:40:54;100287.88;;;9.30;100.00
18918;BME280;9591;52.742;13.650;2022-12-31T02:43:45;100283.00;;;9.17;100.00
18918;BME280;9591;52.742;13.650;2022-12-31T02:46:38;100279.53;;;9.15;100.00
18918;BME280;9591;52.742;13.650;2022-12-31T02:49:40;100269.38;;;9.30;100.00
18918;BME280;9591;52.742;13.650;2022-12-31T02:52:34;100268.41;;;9.32;100.00
18918;BME280;9591;52.742;13.650;2022-12-31T02:55:31;100271.22;;;9.28;100.00
18918;BME280;9591;52.742;13.650;2022-12-31T02:58:31;100265.72;;;9.34;100.00
18918;BME280;9591;52.742;13.650;2022-12-31T03:01:43;100273.22;;;9.46;100.00
18918;BME280;9591;52.742;13.650;2022-12-31T03:04:53;100274.66;;;9.54;100.00
18918;BME280;9591;52.742;13.650;2022-12-31T03:07:41;100247.22;;;9.34;100.00
18918;BME280;9591;52.742;13.650;2022-12-31T03:10:29;100269.66;;;9.47;100.00
18918;BME280;9591;52.742;13.650;2022-12-31T03:13:16;100264.16;;;9.53;100.00
18918;BME280;9591;52.742;13.650;2022-12-31T03:16:02;100263.16;;;9.56;100.00
18918;BME280;9591;52.742;13.650;2022-12-31T03:18:49;100276.78;;;9.45;100.00
18918;BME280;9591;52.742;13.650;2022-12-31T03:21:50;100271.28;;;9.51;100.00
18918;BME280;9591;52.742;13.650;2022-12-31T03:24:59;100274.50;;;9.59;100.00
18918;BME280;9591;52.742;13.650;2022-12-31T03:28:06;100275.75;;;9.49;100.00
18918;BME280;9591;52.742;13.650;2022-12-31T03:30:55;100267.63;;;9.53;100.00
18918;BME280;9591;52.742;13.650;2022-12-31T03:33:42;100267.81;;;9.49;100.00
18918;BME280;9591;52.742;13.650;2022-12-31T03:36:29;100265.19;;;9.49;100.00
18918;BME280;9591;52.742;13.650;2022-12-31T03:39:17;100262.59;;;9.47;100.00
18918;BME280;9591;52.742;13.650;2022-12-31T03:42:04;100258.63;;;9.59;100.00
18918;BME280;9591;52.742;13.650;2022-12-31T03:44:51;100259.47;;;9.60;100.00
18918;BME280;9591;52.742;13.650;2022-12-31T03:47:38;100258.06;;;9.51;100.00
18918;BME280;9591;52.742;13.650;2022-12-31T03:50:25;100255.75;;;9.65;100.00
18918;BME280;9591;52.742;13.650;2022-12-31T03:53:12;100254.03;;;9.64;100.00
18918;BME280;9591;52.742;13.650;2022-12-31T03:56:00;100247.50;;;9.51;100.00
18918;BME280;9591;52.742;13.650;2022-12-31T03:58:46;100255.97;;;9.59;100.00
18918;BME280;9591;52.742;13.650;2022-12-31T04:01:33;100248.81;;;9.63;100.00
18918;BME280;9591;52.742;13.650;2022-12-31T04:04:20;100247.19;;;9.59;100.00
18918;BME280;9591;52.742;13.650;2022-12-31T04:07:07;100246.00;;;9.67;100.00
18918;BME280;9591;52.742;13.650;2022-12-31T04:09:54;100242.84;;;9.81;100.00
18918;BME280;9591;52.742;13.650;2022-12-31T04:12:42;100254.06;;;9.88;100.00
18918;BME280;9591;52.742;13.650;2022-12-31T04:15:29;100270.81;;;9.88;100.00
18918;BME280;9591;52.742;13.650;2022-12-31T04:18:16;100275.34;;;9.84;100.00
18918;BME280;9591;52.742;13.650;2022-12-31T04:21:03;100267.94;;;9.94;100.00
18918;BME280;9591;52.742;13.650;2022-12-31T04:23:50;100267.88;;;9.96;100.00
18918;BME280;9591;52.742;13.650;2022-12-31T04:26:37;100270.34;;;10.00;100.00
18918;BME280;9591;52.742;13.650;2022-12-31T04:29:25;100269.94;;;9.88;100.00
18918;BME280;9591;52.742;13.650;2022-12-31T04:32:12;100265.13;;;9.99;100.00
18918;BME280;9591;52.742;13.650;2022-12-31T04:34:59;100259.47;;;9.84;100.00
18918;BME280;9591;52.742;13.650;2022-12-31T04:37:46;100263.78;;;9.87;100.00
18918;BME280;9591;52.742;13.650;2022-12-31T04:40:33;100269.81;;;9.91;100.00
18918;BME280;9591;52.742;13.650;2022-12-31T04:43:42;100260.44;;;9.82;100.00
18918;BME280;9591;52.742;13.650;2022-12-31T04:46:32;100258.50;;;9.87;100.00
18918;BME280;9591;52.742;13.650;2022-12-31T04:49:19;100250.50;;;9.89;100.00
18918;BME280;9591;52.742;13.650;2022-12-31T04:52:05;100254.06;;;9.88;100.00
18918;BME280;9591;52.742;13.650;2022-12-31T04:54:52;100252.13;;;9.93;100.00
18918;BME280;9591;52.742;13.650;2022-12-31T04:57:39;100240.28;;;10.03;100.00
18918;BME280;9591;52.742;13.650;2022-12-31T05:00:26;100224.28;;;10.06;100.00
18918;BME280;9591;52.742;13.650;2022-12-31T05:03:15;100227.78;;;10.06;100.00
18918;BME280;9591;52.742;13.650;2022-12-31T05:06:04;100217.84;;;10.13;100.00
18918;BME280;9591;52.742;13.650;2022-12-31T05:08:51;100222.22;;;10.14;100.00
18918;BME280;9591;52.742;13.650;2022-12-31T05:11:39;100215.25;;;10.11;100.00
18918;BME280;9591;52.742;13.650;2022-12-31T05:14:25;100213.03;;;10.24;100.00
18918;BME280;9591;52.742;13.650;2022-12-31T05:17:12;100209.28;;;10.30;100.00
18918;BME280;9591;52.742;13.650;2022-12-31T05:20:00;100200.25;;;10.35;100.00
18918;BME280;9591;52.742;13.650;2022-12-31T05:22:47;100200.25;;;10.35;100.00
18918;BME280;9591;52.742;13.650;2022-12-31T05:25:34;100199.91;;;10.43;100.00
18918;BME280;9591;52.742;13.650;2022-12-31T05:28:22;100211.41;;;10.42;100.00
18918;BME280;9591;52.742;13.650;2022-12-31T05:31:08;100228.09;;;10.66;100.00
18918;BME280;9591;52.742;13.650;2022-12-31T05:33:56;100219.72;;;10.55;100.00
18918;BME280;9591;52.742;13.650;2022-12-31T05:36:44;100221.94;;;10.65;100.00
18918;BME280;9591;52.742;13.650;2022-12-31T05:39:31;100230.63;;;10.69;100.00
18918;BME280;9591;52.742;13.650;2022-12-31T05:42:18;100223.50;;;10.71;100.00
18918;BME280;9591;52.742;13.650;2022-12-31T05:45:06;100220.16;;;10.66;100.00
18918;BME280;9591;52.742;13.650;2022-12-31T05:47:52;100219.19;;;10.68;100.00
18918;BME280;9591;52.742;13.650;2022-12-31T05:50:39;100241.41;;;10.64;100.00
18918;BME280;9591;52.742;13.650;2022-12-31T05:53:28;100234.09;;;10.71;100.00
18918;BME280;9591;52.742;13.650;2022-12-31T05:56:14;100223.38;;;10.74;100.00
18918;BME280;9591;52.742;13.650;2022-12-31T05:59:02;100226.13;;;10.71;100.00
18918;BME280;9591;52.742;13.650;2022-12-31T06:01:49;100194.44;;;10.47;100.00
18918;BME280;9591;52.742;13.650;2022-12-31T06:04:35;100228.66;;;10.74;100.00
18918;BME280;9591;52.742;13.650;2022-12-31T06:07:22;100222.19;;;10.81;100.00
18918;BME280;9591;52.742;13.650;2022-12-31T06:10:10;100217.69;;;10.83;100.00
18918;BME280;9591;52.742;13.650;2022-12-31T06:12:58;100210.72;;;10.80;100.00
18918;BME280;9591;52.742;13.650;2022-12-31T06:15:44;100207.91;;;10.85;100.00
18918;BME280;9591;52.742;13.650;2022-12-31T06:18:31;100199.16;;;10.83;100.00
18918;BME280;9591;52.742;13.650;2022-12-31T06:21:19;100182.19;;;10.87;100.00
18918;BME280;9591;52.742;13.650;2022-12-31T06:24:06;100174.38;;;10.84;100.00
18918;BME280;9591;52.742;13.650;2022-12-31T06:26:54;100170.81;;;10.85;100.00
18918;BME280;9591;52.742;13.650;2022-12-31T06:29:41;100148.63;;;10.88;100.00
18918;BME280;9591;52.742;13.650;2022-12-31T06:32:30;100135.91;;;10.96;100.00
18918;BME280;9591;52.742;13.650;2022-12-31T06:35:16;100142.81;;;11.00;100.00
18918;BME280;9591;52.742;13.650;2022-12-31T06:38:03;100145.19;;;10.86;100.00
18918;BME280;9591;52.742;13.650;2022-12-31T06:40:51;100153.38;;;10.79;100.00
18918;BME280;9591;52.742;13.650;2022-12-31T06:43:39;100152.31;;;10.83;100.00
18918;BME280;9591;52.742;13.650;2022-12-31T06:46:26;100123.84;;;10.89;100.00
18918;BME280;9591;52.742;13.650;2022-12-31T06:49:14;100145.25;;;11.04;100.00
18918;BME280;9591;52.742;13.650;2022-12-31T06:52:01;100157.66;;;11.04;100.00
18918;BME280;9591;52.742;13.650;2022-12-31T06:54:48;100143.66;;;11.00;100.00
18918;BME280;9591;52.742;13.650;2022-12-31T06:57:35;100134.72;;;11.03;100.00
18918;BME280;9591;52.742;13.650;2022-12-31T07:00:24;100136.63;;;11.20;100.00
18918;BME280;9591;52.742;13.650;2022-12-31T07:03:22;100136.50;;;11.23;100.00
18918;BME280;9591;52.742;13.650;2022-12-31T07:06:14;100130.22;;;11.25;100.00
18918;BME280;9591;52.742;13.650;2022-12-31T07:09:06;100127.84;;;11.38;100.00
18918;BME280;9591;52.742;13.650;2022-12-31T07:11:59;100123.25;;;11.41;100.00
18918;BME280;9591;52.742;13.650;2022-12-31T07:14:52;100113.09;;;11.51;100.00
18918;BME280;9591;52.742;13.650;2022-12-31T07:17:46;100126.44;;;11.49;100.00
18918;BME280;9591;52.742;13.650;2022-12-31T07:20:37;100112.25;;;11.50;100.00
18918;BME280;9591;52.742;13.650;2022-12-31T07:23:25;100103.13;;;11.56;100.00
18918;BME280;9591;52.742;13.650;2022-12-31T07:26:18;100107.66;;;11.54;100.00
18918;BME280;9591;52.742;13.650;2022-12-31T07:29:13;100114.41;;;11.61;100.00
18918;BME280;9591;52.742;13.650;2022-12-31T07:32:08;100109.75;;;11.66;100.00
18918;BME280;9591;52.742;13.650;2022-12-31T07:35:04;100111.31;;;11.70;100.00
18918;BME280;9591;52.742;13.650;2022-12-31T07:37:59;100107.50;;;11.77;100.00
18918;BME280;9591;52.742;13.650;2022-12-31T07:40:56;100114.22;;;11.85;100.00
18918;BME280;9591;52.742;13.650;2022-12-31T07:43:59;100123.25;;;11.80;100.00
18918;BME280;9591;52.742;13.650;2022-12-31T07:46:53;100126.50;;;11.87;100.00
18918;BME280;9591;52.742;13.650;2022-12-31T07:49:42;100132.09;;;12.00;100.00
18918;BME280;9591;52.742;13.650;2022-12-31T07:52:31;100132.78;;;12.03;100.00
18918;BME280;9591;52.742;13.650;2022-12-31T07:55:18;100142.13;;;12.12;100.00
18918;BME280;9591;52.742;13.650;2022-12-31T07:58:09;100141.94;;;12.15;100.00
18918;BME280;9591;52.742;13.650;2022-12-31T08:01:01;100152.56;;;12.15;100.00
18918;BME280;9591;52.742;13.650;2022-12-31T08:03:54;100158.50;;;12.20;100.00
18918;BME280;9591;52.742;13.650;2022-12-31T08:06:52;100163.31;;;12.31;100.00
18918;BME280;9591;52.742;13.650;2022-12-31T08:09:48;100169.41;;;12.33;100.00
18918;BME280;9591;52.742;13.650;2022-12-31T08:12:38;100158.56;;;12.37;100.00
18918;BME280;9591;52.742;13.650;2022-12-31T08:15:27;100161.25;;;12.55;100.00
18918;BME280;9591;52.742;13.650;2022-12-31T08:18:15;100164.53;;;12.60;100.00
18918;BME280;9591;52.742;13.650;2022-12-31T08:21:09;100179.47;;;12.62;100.00
18918;BME280;9591;52.742;13.650;2022-12-31T08:24:06;100184.22;;;12.56;100.00
18918;BME280;9591;52.742;13.650;2022-12-31T08:27:05;100168.84;;;12.62;100.00
18918;BME280;9591;52.742;13.650;2022-12-31T08:30:00;100156.50;;;12.61;100.00
18918;BME280;9591;52.742;13.650;2022-12-31T08:32:57;100150.66;;;12.72;100.00
18918;BME280;9591;52.742;13.650;2022-12-31T08:36:02;100160.03;;;12.79;100.00
18918;BME280;9591;52.742;13.650;2022-12-31T08:38:56;100146.13;;;12.74;100.00
18918;BME280;9591;52.742;13.650;2022-12-31T08:41:48;100157.94;;;12.86;100.00
18918;BME280;9591;52.742;13.650;2022-12-31T08:44:43;100158.31;;;12.95;100.00
18918;BME280;9591;52.742;13.650;2022-12-31T08:47:40;100171.53;;;12.97;100.00
18918;BME280;9591;52.742;13.650;2022-12-31T08:50:31;100166.13;;;13.16;100.00
18918;BME280;9591;52.742;13.650;2022-12-31T08:53:18;100153.47;;;13.21;100.00
18918;BME280;9591;52.742;13.650;2022-12-31T08:56:09;100156.06;;;13.22;100.00
18918;BME280;9591;52.742;13.650;2022-12-31T08:59:16;100168.25;;;13.26;100.00
18918;BME280;9591;52.742;13.650;2022-12-31T09:02:20;100173.50;;;13.28;100.00
18918;BME280;9591;52.742;13.650;2022-12-31T09:05:18;100162.22;;;13.40;100.00
18918;BME280;9591;52.742;13.650;2022-12-31T09:08:15;100157.06;;;13.37;100.00
18918;BME280;9591;52.742;13.650;2022-12-31T09:11:10;100165.50;;;13.45;100.00
18918;BME280;9591;52.742;13.650;2022-12-31T09:14:20;100166.34;;;13.45;100.00
18918;BME280;9591;52.742;13.650;2022-12-31T09:17:27;100168.16;;;13.45;100.00
18918;BME280;9591;52.742;13.650;2022-12-31T09:20:24;100170.50;;;13.51;100.00
18918;BME280;9591;52.742;13.650;2022-12-31T09:23:27;100169.06;;;13.61;100.00
18918;BME280;9591;52.742;13.650;2022-12-31T09:26:25;100175.16;;;13.63;100.00
18918;BME280;9591;52.742;13.650;2022-12-31T09:29:25;100177.41;;;13.71;100.00
18918;BME280;9591;52.742;13.650;2022-12-31T09:32:22;100183.88;;;13.83;100.00
18918;BME280;9591;52.742;13.650;2022-12-31T09:35:17;100191.78;;;13.84;100.00
18918;BME280;9591;52.742;13.650;2022-12-31T09:38:12;100191.00;;;13.82;100.00
18918;BME280;9591;52.742;13.650;2022-12-31T09:41:12;100180.59;;;13.77;100.00
18918;BME280;9591;52.742;13.650;2022-12-31T09:44:37;100189.84;;;13.70;100.00
18918;BME280;9591;52.742;13.650;2022-12-31T09:47:53;100186.75;;;13.62;100.00
18918;BME280;9591;52.742;13.650;2022-12-31T09:51:05;100186.69;;;13.47;100.00
18918;BME280;9591;52.742;13.650;2022-12-31T09:54:27;100193.81;;;13.46;100.00
18918;BME280;9591;52.742;13.650;2022-12-31T09:57:26;100189.44;;;13.45;100.00
18918;BME280;9591;52.742;13.650;2022-12-31T10:00:19;100193.72;;;13.48;100.00
18918;BME280;9591;52.742;13.650;2022-12-31T10:03:24;100198.19;;;13.47;100.00
18918;BME280;9591;52.742;13.650;2022-12-31T10:06:21;100206.09;;;13.49;100.00
18918;BME280;9591;52.742;13.650;2022-12-31T10:09:29;100205.38;;;13.45;100.00
18918;BME280;9591;52.742;13.650;2022-12-31T10:12:45;100209.78;;;13.46;100.00
18918;BME280;9591;52.742;13.650;2022-12-31T10:16:03;100164.47;;;13.13;100.00
18918;BME280;9591;52.742;13.650;2022-12-31T10:19:26;100211.66;;;13.44;100.00
18918;BME280;9591;52.742;13.650;2022-12-31T10:22:38;100221.19;;;13.31;100.00
18918;BME280;9591;52.742;13.650;2022-12-31T10:25:36;100216.44;;;13.37;100.00
18918;BME280;9591;52.742;13.650;2022-12-31T10:28:30;100217.22;;;13.39;100.00
18918;BME280;9591;52.742;13.650;2022-12-31T10:31:42;100215.88;;;13.31;100.00
18918;BME280;9591;52.742;13.650;2022-12-31T10:34:49;100217.13;;;13.41;100.00
18918;BME280;9591;52.742;13.650;2022-12-31T10:37:42;100223.47;;;13.38;100.00
18918;BME280;9591;52.742;13.650;2022-12-31T10:40:49;100227.06;;;13.37;100.00
18918;BME280;9591;52.742;13.650;2022-12-31T10:44:03;100219.63;;;13.44;100.00
18918;BME280;9591;52.742;13.650;2022-12-31T10:47:35;100220.41;;;13.46;100.00
18918;BME280;9591;52.742;13.650;2022-12-31T10:54:17;100228.53;;;13.60;100.00
18918;BME280;9591;52.742;13.650;2022-12-31T10:57:26;100235.50;;;13.63;100.00
18918;BME280;9591;52.742;13.650;2022-12-31T11:00:21;100229.22;;;13.64;100.00
18918;BME280;9591;52.742;13.650;2022-12-31T11:07:13;100253.03;;;13.50;100.00
18918;BME280;9591;52.742;13.650;2022-12-31T11:14:06;100258.59;;;13.45;100.00
18918;BME280;9591;52.742;13.650;2022-12-31T11:17:04;100263.19;;;13.59;100.00
18918;BME280;9591;52.742;13.650;2022-12-31T11:20:02;100257.19;;;13.55;100.00
18918;BME280;9591;52.742;13.650;2022-12-31T11:23:06;100256.69;;;13.64;100.00
18918;BME280;9591;52.742;13.650;2022-12-31T11:26:04;100256.88;;;13.61;100.00
18918;BME280;9591;52.742;13.650;2022-12-31T11:29:03;100200.53;;;13.36;100.00
18918;BME280;9591;52.742;13.650;2022-12-31T11:32:03;100253.09;;;13.65;100.00
18918;BME280;9591;52.742;13.650;2022-12-31T11:35:11;100250.13;;;13.71;100.00
18918;BME280;9591;52.742;13.650;2022-12-31T11:38:15;100241.69;;;13.63;100.00
18918;BME280;9591;52.742;13.650;2022-12-31T11:41:06;100234.41;;;13.67;100.00
18918;BME280;9591;52.742;13.650;2022-12-31T11:44:04;100230.47;;;13.74;100.00
18918;BME280;9591;52.742;13.650;2022-12-31T11:47:07;100226.47;;;13.83;100.00
18918;BME280;9591;52.742;13.650;2022-12-31T11:50:09;100214.00;;;13.83;100.00
18918;BME280;9591;52.742;13.650;2022-12-31T11:53:14;100207.13;;;13.95;100.00
18918;BME280;9591;52.742;13.650;2022-12-31T11:56:15;100206.03;;;13.99;100.00
18918;BME280;9591;52.742;13.650;2022-12-31T11:59:07;100215.56;;;14.03;100.00
18918;BME280;9591;52.742;13.650;2022-12-31T12:02:19;100212.41;;;14.12;100.00
18918;BME280;9591;52.742;13.650;2022-12-31T12:05:07;100203.47;;;14.13;100.00
18918;BME280;9591;52.742;13.650;2022-12-31T12:07:55;100199.25;;;14.09;100.00
18918;BME280;9591;52.742;13.650;2022-12-31T12:10:47;100194.88;;;14.08;100.00
18918;BME280;9591;52.742;13.650;2022-12-31T12:13:34;100204.41;;;14.12;100.00
18918;BME280;9591;52.742;13.650;2022-12-31T12:16:21;100199.69;;;14.01;100.00
18918;BME280;9591;52.742;13.650;2022-12-31T12:19:16;100199.44;;;14.06;100.00
18918;BME280;9591;52.742;13.650;2022-12-31T12:22:11;100203.56;;;14.11;100.00
18918;BME280;9591;52.742;13.650;2022-12-31T12:25:04;100203.31;;;14.16;100.00
18918;BME280;9591;52.742;13.650;2022-12-31T12:27:52;100201.59;;;14.15;100.00
18918;BME280;9591;52.742;13.650;2022-12-31T12:30:39;100191.72;;;14.17;100.00
18918;BME280;9591;52.742;13.650;2022-12-31T12:33:29;100194.97;;;14.22;100.00
18918;BME280;9591;52.742;13.650;2022-12-31T12:36:19;100185.25;;;14.21;100.00
18918;BME280;9591;52.742;13.650;2022-12-31T12:39:06;100191.38;;;14.23;100.00
18918;BME280;9591;52.742;13.650;2022-12-31T12:42:04;100178.81;;;14.25;100.00
18918;BME280;9591;52.742;13.650;2022-12-31T12:45:03;100174.88;;;14.32;100.00
18918;BME280;9591;52.742;13.650;2022-12-31T12:47:54;100185.19;;;14.38;100.00
18918;BME280;9591;52.742;13.650;2022-12-31T12:50:43;100184.09;;;14.42;100.00
18918;BME280;9591;52.742;13.650;2022-12-31T12:53:37;100178.25;;;14.52;100.00
18918;BME280;9591;52.742;13.650;2022-12-31T12:56:35;100181.78;;;14.52;100.00
18918;BME280;9591;52.742;13.650;2022-12-31T13:00:06;100174.38;;;14.57;100.00
18918;BME280;9591;52.742;13.650;2022-12-31T13:03:28;100172.50;;;14.73;100.00
18918;BME280;9591;52.742;13.650;2022-12-31T13:06:47;100174.09;;;14.92;100.00
18918;BME280;9591;52.742;13.650;2022-12-31T13:09:48;100165.56;;;15.01;100.00
18918;BME280;9591;52.742;13.650;2022-12-31T13:12:44;100164.72;;;15.00;100.00
18918;BME280;9591;52.742;13.650;2022-12-31T13:16:03;100155.97;;;15.13;100.00
18918;BME280;9591;52.742;13.650;2022-12-31T13:18:58;100159.22;;;15.18;100.00
18918;BME280;9591;52.742;13.650;2022-12-31T13:21:55;100176.16;;;15.47;100.00
18918;BME280;9591;52.742;13.650;2022-12-31T13:24:52;100177.59;;;15.52;100.00
18918;BME280;9591;52.742;13.650;2022-12-31T13:27:44;100190.59;;;15.58;100.00
18918;BME280;9591;52.742;13.650;2022-12-31T13:30:37;100199.53;;;15.71;100.00
18918;BME280;9591;52.742;13.650;2022-12-31T13:33:29;100178.94;;;15.73;100.00
18918;BME280;9591;52.742;13.650;2022-12-31T13:36:19;100194.84;;;15.75;100.00
18918;BME280;9591;52.742;13.650;2022-12-31T13:39:13;100191.13;;;15.78;100.00
18918;BME280;9591;52.742;13.650;2022-12-31T13:42:06;100196.56;;;15.90;100.00
18918;BME280;9591;52.742;13.650;2022-12-31T13:44:59;100196.47;;;15.92;100.00
18918;BME280;9591;52.742;13.650;2022-12-31T13:47:49;100191.50;;;16.00;100.00
18918;BME280;9591;52.742;13.650;2022-12-31T13:50:43;100195.31;;;16.10;100.00
18918;BME280;9591;52.742;13.650;2022-12-31T13:53:39;100208.97;;;16.05;100.00
18918;BME280;9591;52.742;13.650;2022-12-31T13:56:32;100213.94;;;16.12;100.00
18918;BME280;9591;52.742;13.650;2022-12-31T13:59:25;100217.66;;;16.09;100.00
18918;BME280;9591;52.742;13.650;2022-12-31T14:02:25;100205.25;;;16.08;100.00
18918;BME280;9591;52.742;13.650;2022-12-31T14:05:18;100220.31;;;16.09;100.00
18918;BME280;9591;52.742;13.650;2022-12-31T14:08:09;100221.63;;;16.30;100.00
18918;BME280;9591;52.742;13.650;2022-12-31T14:11:00;100247.69;;;16.27;100.00
18918;BME280;9591;52.742;13.650;2022-12-31T14:14:06;100314.66;;;16.10;100.00
18918;BME280;9591;52.742;13.650;2022-12-31T14:17:04;100342.50;;;15.61;100.00
18918;BME280;9591;52.742;13.650;2022-12-31T14:20:02;100325.38;;;14.88;100.00
18918;BME280;9591;52.742;13.650;2022-12-31T14:22:59;100349.72;;;14.82;100.00
18918;BME280;9591;52.742;13.650;2022-12-31T14:25:55;100343.72;;;14.63;100.00
18918;BME280;9591;52.742;13.650;2022-12-31T14:28:48;100355.84;;;14.35;100.00
18918;BME280;9591;52.742;13.650;2022-12-31T14:31:55;100335.63;;;13.98;100.00
18918;BME280;9591;52.742;13.650;2022-12-31T14:34:51;100374.91;;;14.10;100.00
18918;BME280;9591;52.742;13.650;2022-12-31T14:37:45;100381.34;;;14.06;100.00
18918;BME280;9591;52.742;13.650;2022-12-31T14:40:44;100365.75;;;14.16;100.00
18918;BME280;9591;52.742;13.650;2022-12-31T14:43:42;100364.59;;;14.04;100.00
18918;BME280;9591;52.742;13.650;2022-12-31T14:46:39;100364.25;;;13.77;100.00
18918;BME280;9591;52.742;13.650;2022-12-31T14:49:38;100367.69;;;13.80;100.00
18918;BME280;9591;52.742;13.650;2022-12-31T14:52:32;100381.69;;;13.66;100.00
18918;BME280;9591;52.742;13.650;2022-12-31T14:55:26;100356.94;;;13.64;100.00
18918;BME280;9591;52.742;13.650;2022-12-31T14:58:20;100374.50;;;13.68;100.00
18918;BME280;9591;52.742;13.650;2022-12-31T15:01:20;100375.81;;;13.59;100.00
18918;BME280;9591;52.742;13.650;2022-12-31T15:04:14;100369.78;;;13.73;100.00
18918;BME280;9591;52.742;13.650;2022-12-31T15:07:06;100369.47;;;13.62;100.00
18918;BME280;9591;52.742;13.650;2022-12-31T15:10:05;100370.66;;;13.73;100.00
18918;BME280;9591;52.742;13.650;2022-12-31T15:13:01;100374.41;;;13.69;100.00
18918;BME280;9591;52.742;13.650;2022-12-31T15:16:10;100380.28;;;13.59;100.00